sensor_id;sensor_type;location;lat;lon;timestamp;P1;durP1;ratioP1;P2;durP2;ratioP2
8151;SDS011;4117;53.622;9.958;2023-02-15T00:01:59;4.13;;;1.80;;
8151;SDS011;4117;53.622;9.958;2023-02-15T00:04:26;3.33;;;1.33;;
8151;SDS011;4117;53.622;9.958;2023-02-15T00:07:12;3.23;;;1.33;;
8151;SDS011;4117;53.622;9.958;2023-02-15T00:09:40;2.77;;;1.20;;
8151;SDS011;4117;53.622;9.958;2023-02-15T00:12:08;4.67;;;1.50;;
8151;SDS011;4117;53.622;9.958;2023-02-15T00:14:35;2.27;;;1.30;;
8151;SDS011;4117;53.622;9.958;2023-02-15T00:17:02;5.37;;;1.80;;
8151;SDS011;4117;53.622;9.958;2023-02-15T00:19:29;1.87;;;1.50;;
8151;SDS011;4117;53.622;9.958;2023-02-15T00:21:56;7.77;;;2.10;;
8151;SDS011;4117;53.622;9.958;2023-02-15T00:24:24;5.17;;;1.83;;
8151;SDS011;4117;53.622;9.958;2023-02-15T00:26:51;3.13;;;1.80;;
8151;SDS011;4117;53.622;9.958;2023-02-15T00:29:18;4.33;;;2.10;;
8151;SDS011;4117;53.622;9.958;2023-02-15T00:31:46;4.97;;;2.27;;
8151;SDS011;4117;53.622;9.958;2023-02-15T00:34:13;2.53;;;1.83;;
8151;SDS011;4117;53.622;9.958;2023-02-15T00:36:41;5.57;;;1.90;;
8151;SDS011;4117;53.622;9.958;2023-02-15T00:39:09;1.70;;;1.10;;
8151;SDS011;4117;53.622;9.958;2023-02-15T00:41:38;4.40;;;2.20;;
8151;SDS011;4117;53.622;9.958;2023-02-15T00:44:05;5.03;;;2.17;;
8151;SDS011;4117;53.622;9.958;2023-02-15T00:46:32;6.00;;;1.90;;
8151;SDS011;4117;53.622;9.958;2023-02-15T00:49:00;2.03;;;1.17;;
8151;SDS011;4117;53.622;9.958;2023-02-15T00:51:27;6.57;;;2.17;;
8151;SDS011;4117;53.622;9.958;2023-02-15T00:53:54;2.33;;;1.53;;
8151;SDS011;4117;53.622;9.958;2023-02-15T00:56:21;5.20;;;1.97;;
8151;SDS011;4117;53.622;9.958;2023-02-15T00:58:50;3.67;;;1.83;;
8151;SDS011;4117;53.622;9.958;2023-02-15T01:01:18;3.50;;;1.70;;
8151;SDS011;4117;53.622;9.958;2023-02-15T01:03:46;1.47;;;1.13;;
8151;SDS011;4117;53.622;9.958;2023-02-15T01:06:13;5.90;;;1.63;;
8151;SDS011;4117;53.622;9.958;2023-02-15T01:08:40;4.93;;;2.27;;
8151;SDS011;4117;53.622;9.958;2023-02-15T01:11:08;7.20;;;1.90;;
8151;SDS011;4117;53.622;9.958;2023-02-15T01:13:38;6.93;;;1.93;;
8151;SDS011;4117;53.622;9.958;2023-02-15T01:16:06;3.47;;;1.80;;
8151;SDS011;4117;53.622;9.958;2023-02-15T01:18:34;3.33;;;1.63;;
8151;SDS011;4117;53.622;9.958;2023-02-15T01:21:08;1.77;;;1.07;;
8151;SDS011;4117;53.622;9.958;2023-02-15T01:23:36;2.73;;;1.50;;
8151;SDS011;4117;53.622;9.958;2023-02-15T01:26:02;3.70;;;1.50;;
8151;SDS011;4117;53.622;9.958;2023-02-15T01:28:30;1.70;;;1.40;;
8151;SDS011;4117;53.622;9.958;2023-02-15T01:30:57;2.50;;;1.57;;
8151;SDS011;4117;53.622;9.958;2023-02-15T01:33:26;3.50;;;1.73;;
8151;SDS011;4117;53.622;9.958;2023-02-15T01:35:55;4.60;;;1.67;;
8151;SDS011;4117;53.622;9.958;2023-02-15T01:38:23;3.87;;;1.60;;
8151;SDS011;4117;53.622;9.958;2023-02-15T01:40:50;3.30;;;1.53;;
8151;SDS011;4117;53.622;9.958;2023-02-15T01:43:17;6.57;;;1.97;;
8151;SDS011;4117;53.622;9.958;2023-02-15T01:45:44;3.90;;;1.50;;
8151;SDS011;4117;53.622;9.958;2023-02-15T01:48:17;2.63;;;1.40;;
8151;SDS011;4117;53.622;9.958;2023-02-15T01:50:49;1.87;;;1.37;;
8151;SDS011;4117;53.622;9.958;2023-02-15T01:53:20;5.97;;;2.63;;
8151;SDS011;4117;53.622;9.958;2023-02-15T01:55:52;3.50;;;1.20;;
8151;SDS011;4117;53.622;9.958;2023-02-15T01:58:23;7.10;;;1.50;;
8151;SDS011;4117;53.622;9.958;2023-02-15T02:00:54;4.73;;;1.67;;
8151;SDS011;4117;53.622;9.958;2023-02-15T02:03:24;2.23;;;1.40;;
8151;SDS011;4117;53.622;9.958;2023-02-15T02:09:24;2.37;;;1.87;;
8151;SDS011;4117;53.622;9.958;2023-02-15T02:11:52;1.30;;;1.20;;
8151;SDS011;4117;53.622;9.958;2023-02-15T02:14:19;1.50;;;0.97;;
8151;SDS011;4117;53.622;9.958;2023-02-15T02:16:48;2.20;;;1.63;;
8151;SDS011;4117;53.622;9.958;2023-02-15T02:19:27;2.10;;;1.73;;
8151;SDS011;4117;53.622;9.958;2023-02-15T02:25:34;2.60;;;1.37;;
8151;SDS011;4117;53.622;9.958;2023-02-15T02:28:21;1.93;;;1.30;;
8151;SDS011;4117;53.622;9.958;2023-02-15T02:31:19;2.27;;;1.40;;
8151;SDS011;4117;53.622;9.958;2023-02-15T02:37:06;4.67;;;2.17;;
8151;SDS011;4117;53.622;9.958;2023-02-15T02:39:41;2.97;;;1.30;;
8151;SDS011;4117;53.622;9.958;2023-02-15T02:42:18;4.00;;;1.93;;
8151;SDS011;4117;53.622;9.958;2023-02-15T02:44:49;1.50;;;1.20;;
8151;SDS011;4117;53.622;9.958;2023-02-15T02:47:23;1.00;;;0.80;;
8151;SDS011;4117;53.622;9.958;2023-02-15T02:49:58;1.10;;;0.77;;
8151;SDS011;4117;53.622;9.958;2023-02-15T02:52:35;2.07;;;1.37;;
8151;SDS011;4117;53.622;9.958;2023-02-15T02:55:05;2.23;;;1.20;;
8151;SDS011;4117;53.622;9.958;2023-02-15T02:57:36;1.53;;;1.07;;
8151;SDS011;4117;53.622;9.958;2023-02-15T03:00:09;3.60;;;1.40;;
8151;SDS011;4117;53.622;9.958;2023-02-15T03:02:47;3.03;;;1.17;;
8151;SDS011;4117;53.622;9.958;2023-02-15T03:05:18;3.23;;;1.53;;
8151;SDS011;4117;53.622;9.958;2023-02-15T03:07:51;2.47;;;1.40;;
8151;SDS011;4117;53.622;9.958;2023-02-15T03:10:23;1.90;;;1.20;;
8151;SDS011;4117;53.622;9.958;2023-02-15T03:12:52;2.83;;;1.83;;
8151;SDS011;4117;53.622;9.958;2023-02-15T03:15:20;2.97;;;1.77;;
8151;SDS011;4117;53.622;9.958;2023-02-15T03:17:55;3.30;;;1.43;;
8151;SDS011;4117;53.622;9.958;2023-02-15T03:20:31;4.63;;;1.53;;
8151;SDS011;4117;53.622;9.958;2023-02-15T03:23:03;4.17;;;1.83;;
8151;SDS011;4117;53.622;9.958;2023-02-15T03:25:36;4.40;;;2.17;;
8151;SDS011;4117;53.622;9.958;2023-02-15T03:28:08;4.90;;;1.77;;
8151;SDS011;4117;53.622;9.958;2023-02-15T03:30:37;2.50;;;1.30;;
8151;SDS011;4117;53.622;9.958;2023-02-15T03:33:06;2.67;;;1.70;;
8151;SDS011;4117;53.622;9.958;2023-02-15T03:35:36;2.20;;;1.10;;
8151;SDS011;4117;53.622;9.958;2023-02-15T03:38:10;3.23;;;1.13;;
8151;SDS011;4117;53.622;9.958;2023-02-15T03:40:44;0.93;;;0.93;;
8151;SDS011;4117;53.622;9.958;2023-02-15T03:43:31;2.10;;;1.47;;
8151;SDS011;4117;53.622;9.958;2023-02-15T03:46:05;2.60;;;1.00;;
8151;SDS011;4117;53.622;9.958;2023-02-15T03:48:36;3.33;;;1.47;;
8151;SDS011;4117;53.622;9.958;2023-02-15T03:51:07;1.90;;;1.23;;
8151;SDS011;4117;53.622;9.958;2023-02-15T03:53:56;2.00;;;1.13;;
8151;SDS011;4117;53.622;9.958;2023-02-15T03:56:25;1.77;;;1.30;;
8151;SDS011;4117;53.622;9.958;2023-02-15T03:58:52;1.63;;;1.50;;
8151;SDS011;4117;53.622;9.958;2023-02-15T04:01:37;4.73;;;1.80;;
8151;SDS011;4117;53.622;9.958;2023-02-15T04:04:23;1.43;;;1.20;;
8151;SDS011;4117;53.622;9.958;2023-02-15T04:06:55;2.63;;;1.20;;
8151;SDS011;4117;53.622;9.958;2023-02-15T04:09:23;3.03;;;1.67;;
8151;SDS011;4117;53.622;9.958;2023-02-15T04:12:07;1.43;;;1.27;;
8151;SDS011;4117;53.622;9.958;2023-02-15T04:14:34;3.43;;;1.43;;
8151;SDS011;4117;53.622;9.958;2023-02-15T04:17:19;1.47;;;0.80;;
8151;SDS011;4117;53.622;9.958;2023-02-15T04:19:46;2.83;;;1.50;;
8151;SDS011;4117;53.622;9.958;2023-02-15T04:22:30;1.13;;;1.03;;
8151;SDS011;4117;53.622;9.958;2023-02-15T04:25:16;4.40;;;1.50;;
8151;SDS011;4117;53.622;9.958;2023-02-15T04:27:45;0.70;;;0.70;;
8151;SDS011;4117;53.622;9.958;2023-02-15T04:30:13;3.97;;;1.50;;
8151;SDS011;4117;53.622;9.958;2023-02-15T04:32:41;3.00;;;1.37;;
8151;SDS011;4117;53.622;9.958;2023-02-15T04:35:08;2.17;;;1.20;;
8151;SDS011;4117;53.622;9.958;2023-02-15T04:37:36;2.93;;;1.57;;
8151;SDS011;4117;53.622;9.958;2023-02-15T04:40:04;2.30;;;1.27;;
8151;SDS011;4117;53.622;9.958;2023-02-15T04:42:34;3.43;;;1.73;;
8151;SDS011;4117;53.622;9.958;2023-02-15T04:45:01;1.87;;;1.00;;
8151;SDS011;4117;53.622;9.958;2023-02-15T04:47:28;3.50;;;1.40;;
8151;SDS011;4117;53.622;9.958;2023-02-15T04:49:56;2.23;;;1.30;;
8151;SDS011;4117;53.622;9.958;2023-02-15T04:52:23;1.43;;;1.27;;
8151;SDS011;4117;53.622;9.958;2023-02-15T04:54:50;3.17;;;1.17;;
8151;SDS011;4117;53.622;9.958;2023-02-15T04:57:17;1.90;;;1.17;;
8151;SDS011;4117;53.622;9.958;2023-02-15T04:59:45;3.47;;;1.40;;
8151;SDS011;4117;53.622;9.958;2023-02-15T05:02:12;2.00;;;1.03;;
8151;SDS011;4117;53.622;9.958;2023-02-15T05:04:40;2.00;;;1.43;;
8151;SDS011;4117;53.622;9.958;2023-02-15T05:07:06;1.90;;;1.23;;
8151;SDS011;4117;53.622;9.958;2023-02-15T05:09:33;2.50;;;1.37;;
8151;SDS011;4117;53.622;9.958;2023-02-15T05:12:00;2.90;;;1.20;;
8151;SDS011;4117;53.622;9.958;2023-02-15T05:14:28;1.40;;;0.90;;
8151;SDS011;4117;53.622;9.958;2023-02-15T05:16:57;1.90;;;1.20;;
8151;SDS011;4117;53.622;9.958;2023-02-15T05:19:26;1.63;;;1.30;;
8151;SDS011;4117;53.622;9.958;2023-02-15T05:21:53;2.10;;;1.27;;
8151;SDS011;4117;53.622;9.958;2023-02-15T05:24:21;3.17;;;1.40;;
8151;SDS011;4117;53.622;9.958;2023-02-15T05:27:05;1.67;;;1.50;;
8151;SDS011;4117;53.622;9.958;2023-02-15T05:29:49;3.93;;;1.47;;
8151;SDS011;4117;53.622;9.958;2023-02-15T05:32:17;1.70;;;1.23;;
8151;SDS011;4117;53.622;9.958;2023-02-15T05:34:45;2.73;;;1.20;;
8151;SDS011;4117;53.622;9.958;2023-02-15T05:37:12;2.03;;;1.27;;
8151;SDS011;4117;53.622;9.958;2023-02-15T05:39:40;1.47;;;1.20;;
8151;SDS011;4117;53.622;9.958;2023-02-15T05:42:07;3.60;;;1.43;;
8151;SDS011;4117;53.622;9.958;2023-02-15T05:44:35;1.50;;;1.00;;
8151;SDS011;4117;53.622;9.958;2023-02-15T05:47:01;2.70;;;1.03;;
8151;SDS011;4117;53.622;9.958;2023-02-15T05:49:30;1.70;;;1.40;;
8151;SDS011;4117;53.622;9.958;2023-02-15T05:51:57;3.63;;;1.57;;
8151;SDS011;4117;53.622;9.958;2023-02-15T05:54:24;3.70;;;1.30;;
8151;SDS011;4117;53.622;9.958;2023-02-15T05:56:53;2.90;;;1.07;;
8151;SDS011;4117;53.622;9.958;2023-02-15T05:59:20;2.87;;;1.33;;
8151;SDS011;4117;53.622;9.958;2023-02-15T06:01:47;5.67;;;1.37;;
8151;SDS011;4117;53.622;9.958;2023-02-15T06:04:14;0.97;;;0.90;;
8151;SDS011;4117;53.622;9.958;2023-02-15T06:06:44;4.33;;;1.83;;
8151;SDS011;4117;53.622;9.958;2023-02-15T06:09:11;3.17;;;1.40;;
8151;SDS011;4117;53.622;9.958;2023-02-15T06:11:39;4.43;;;1.40;;
8151;SDS011;4117;53.622;9.958;2023-02-15T06:14:06;3.23;;;1.33;;
8151;SDS011;4117;53.622;9.958;2023-02-15T06:16:33;1.87;;;1.30;;
8151;SDS011;4117;53.622;9.958;2023-02-15T06:19:01;4.87;;;1.77;;
8151;SDS011;4117;53.622;9.958;2023-02-15T06:21:29;3.23;;;1.20;;
8151;SDS011;4117;53.622;9.958;2023-02-15T06:24:00;5.10;;;1.67;;
8151;SDS011;4117;53.622;9.958;2023-02-15T06:26:32;4.73;;;1.63;;
8151;SDS011;4117;53.622;9.958;2023-02-15T06:28:59;1.13;;;1.03;;
8151;SDS011;4117;53.622;9.958;2023-02-15T06:31:26;5.77;;;1.60;;
8151;SDS011;4117;53.622;9.958;2023-02-15T06:33:53;1.97;;;1.23;;
8151;SDS011;4117;53.622;9.958;2023-02-15T06:36:26;2.10;;;1.47;;
8151;SDS011;4117;53.622;9.958;2023-02-15T06:38:53;2.33;;;1.07;;
8151;SDS011;4117;53.622;9.958;2023-02-15T06:41:22;3.73;;;2.00;;
8151;SDS011;4117;53.622;9.958;2023-02-15T06:43:49;4.17;;;1.90;;
8151;SDS011;4117;53.622;9.958;2023-02-15T06:46:16;1.83;;;1.10;;
8151;SDS011;4117;53.622;9.958;2023-02-15T06:48:43;2.97;;;1.30;;
8151;SDS011;4117;53.622;9.958;2023-02-15T06:51:10;2.30;;;1.40;;
8151;SDS011;4117;53.622;9.958;2023-02-15T06:53:38;2.07;;;1.27;;
8151;SDS011;4117;53.622;9.958;2023-02-15T06:56:07;1.83;;;1.10;;
8151;SDS011;4117;53.622;9.958;2023-02-15T06:58:36;2.47;;;1.53;;
8151;SDS011;4117;53.622;9.958;2023-02-15T07:01:08;2.77;;;1.40;;
8151;SDS011;4117;53.622;9.958;2023-02-15T07:03:36;4.97;;;2.07;;
8151;SDS011;4117;53.622;9.958;2023-02-15T07:06:04;3.10;;;1.63;;
8151;SDS011;4117;53.622;9.958;2023-02-15T07:08:33;1.63;;;1.10;;
8151;SDS011;4117;53.622;9.958;2023-02-15T07:11:00;3.83;;;1.73;;
8151;SDS011;4117;53.622;9.958;2023-02-15T07:13:43;4.73;;;1.30;;
8151;SDS011;4117;53.622;9.958;2023-02-15T07:16:10;2.07;;;1.23;;
8151;SDS011;4117;53.622;9.958;2023-02-15T07:18:37;4.17;;;1.80;;
8151;SDS011;4117;53.622;9.958;2023-02-15T07:21:04;3.50;;;1.70;;
8151;SDS011;4117;53.622;9.958;2023-02-15T07:23:33;2.50;;;1.50;;
8151;SDS011;4117;53.622;9.958;2023-02-15T07:26:00;2.77;;;1.67;;
8151;SDS011;4117;53.622;9.958;2023-02-15T07:28:34;3.00;;;1.73;;
8151;SDS011;4117;53.622;9.958;2023-02-15T07:31:03;2.27;;;1.67;;
8151;SDS011;4117;53.622;9.958;2023-02-15T07:33:31;3.87;;;1.63;;
8151;SDS011;4117;53.622;9.958;2023-02-15T07:36:00;2.73;;;1.60;;
8151;SDS011;4117;53.622;9.958;2023-02-15T07:38:29;4.50;;;1.17;;
8151;SDS011;4117;53.622;9.958;2023-02-15T07:40:58;2.03;;;1.70;;
8151;SDS011;4117;53.622;9.958;2023-02-15T07:43:26;2.33;;;1.50;;
8151;SDS011;4117;53.622;9.958;2023-02-15T07:45:53;3.53;;;1.30;;
8151;SDS011;4117;53.622;9.958;2023-02-15T07:48:21;1.53;;;1.37;;
8151;SDS011;4117;53.622;9.958;2023-02-15T07:50:48;6.97;;;1.67;;
8151;SDS011;4117;53.622;9.958;2023-02-15T07:53:15;1.77;;;1.20;;
8151;SDS011;4117;53.622;9.958;2023-02-15T07:55:42;2.63;;;1.10;;
8151;SDS011;4117;53.622;9.958;2023-02-15T07:58:11;3.27;;;1.80;;
8151;SDS011;4117;53.622;9.958;2023-02-15T08:00:38;5.90;;;1.67;;
8151;SDS011;4117;53.622;9.958;2023-02-15T08:03:19;4.10;;;1.50;;
8151;SDS011;4117;53.622;9.958;2023-02-15T08:05:51;4.23;;;1.87;;
8151;SDS011;4117;53.622;9.958;2023-02-15T08:08:21;2.53;;;2.00;;
8151;SDS011;4117;53.622;9.958;2023-02-15T08:10:57;4.17;;;1.47;;
8151;SDS011;4117;53.622;9.958;2023-02-15T08:13:43;4.33;;;1.47;;
8151;SDS011;4117;53.622;9.958;2023-02-15T08:16:20;2.37;;;1.27;;
8151;SDS011;4117;53.622;9.958;2023-02-15T08:18:51;1.57;;;1.20;;
8151;SDS011;4117;53.622;9.958;2023-02-15T08:21:20;1.47;;;1.10;;
8151;SDS011;4117;53.622;9.958;2023-02-15T08:23:48;3.33;;;1.77;;
8151;SDS011;4117;53.622;9.958;2023-02-15T08:26:15;2.77;;;1.57;;
8151;SDS011;4117;53.622;9.958;2023-02-15T08:28:43;2.70;;;1.40;;
8151;SDS011;4117;53.622;9.958;2023-02-15T08:31:12;3.20;;;1.63;;
8151;SDS011;4117;53.622;9.958;2023-02-15T08:33:40;1.60;;;1.47;;
8151;SDS011;4117;53.622;9.958;2023-02-15T08:36:09;2.73;;;1.60;;
8151;SDS011;4117;53.622;9.958;2023-02-15T08:38:40;2.23;;;1.47;;
8151;SDS011;4117;53.622;9.958;2023-02-15T08:41:08;2.30;;;1.50;;
8151;SDS011;4117;53.622;9.958;2023-02-15T08:43:36;9.63;;;2.27;;
8151;SDS011;4117;53.622;9.958;2023-02-15T08:46:07;3.83;;;1.80;;
8151;SDS011;4117;53.622;9.958;2023-02-15T08:48:35;2.03;;;1.50;;
8151;SDS011;4117;53.622;9.958;2023-02-15T08:51:06;4.63;;;1.87;;
8151;SDS011;4117;53.622;9.958;2023-02-15T08:53:35;2.37;;;1.23;;
8151;SDS011;4117;53.622;9.958;2023-02-15T08:56:05;2.23;;;1.53;;
8151;SDS011;4117;53.622;9.958;2023-02-15T08:58:33;1.43;;;1.00;;
8151;SDS011;4117;53.622;9.958;2023-02-15T09:01:00;2.93;;;1.63;;
8151;SDS011;4117;53.622;9.958;2023-02-15T09:03:34;2.83;;;1.67;;
8151;SDS011;4117;53.622;9.958;2023-02-15T09:06:01;3.20;;;2.10;;
8151;SDS011;4117;53.622;9.958;2023-02-15T09:08:28;3.70;;;1.47;;
8151;SDS011;4117;53.622;9.958;2023-02-15T09:11:05;2.17;;;1.80;;
8151;SDS011;4117;53.622;9.958;2023-02-15T09:13:33;1.83;;;1.40;;
8151;SDS011;4117;53.622;9.958;2023-02-15T09:16:01;2.80;;;1.50;;
8151;SDS011;4117;53.622;9.958;2023-02-15T09:18:29;6.67;;;1.63;;
8151;SDS011;4117;53.622;9.958;2023-02-15T09:21:03;6.37;;;2.07;;
8151;SDS011;4117;53.622;9.958;2023-02-15T09:23:31;3.87;;;1.57;;
8151;SDS011;4117;53.622;9.958;2023-02-15T09:26:01;1.97;;;1.63;;
8151;SDS011;4117;53.622;9.958;2023-02-15T09:28:31;2.20;;;1.20;;
8151;SDS011;4117;53.622;9.958;2023-02-15T09:31:10;3.17;;;1.50;;
8151;SDS011;4117;53.622;9.958;2023-02-15T09:33:39;6.57;;;1.83;;
8151;SDS011;4117;53.622;9.958;2023-02-15T09:36:14;1.70;;;1.50;;
8151;SDS011;4117;53.622;9.958;2023-02-15T09:38:42;3.90;;;2.07;;
8151;SDS011;4117;53.622;9.958;2023-02-15T09:41:15;3.17;;;1.53;;
8151;SDS011;4117;53.622;9.958;2023-02-15T09:43:59;2.13;;;1.40;;
8151;SDS011;4117;53.622;9.958;2023-02-15T09:46:41;4.43;;;1.80;;
8151;SDS011;4117;53.622;9.958;2023-02-15T09:49:19;3.97;;;1.90;;
8151;SDS011;4117;53.622;9.958;2023-02-15T09:52:02;5.47;;;2.13;;
8151;SDS011;4117;53.622;9.958;2023-02-15T09:54:48;4.80;;;2.30;;
8151;SDS011;4117;53.622;9.958;2023-02-15T09:57:30;2.13;;;1.17;;
8151;SDS011;4117;53.622;9.958;2023-02-15T10:00:07;1.90;;;1.60;;
8151;SDS011;4117;53.622;9.958;2023-02-15T10:02:58;3.13;;;1.50;;
8151;SDS011;4117;53.622;9.958;2023-02-15T10:05:51;3.33;;;2.13;;
8151;SDS011;4117;53.622;9.958;2023-02-15T10:08:32;4.07;;;1.70;;
8151;SDS011;4117;53.622;9.958;2023-02-15T10:11:19;2.93;;;1.73;;
8151;SDS011;4117;53.622;9.958;2023-02-15T10:14:15;3.90;;;2.03;;
8151;SDS011;4117;53.622;9.958;2023-02-15T10:16:56;4.00;;;1.93;;
8151;SDS011;4117;53.622;9.958;2023-02-15T10:19:35;3.00;;;2.00;;
8151;SDS011;4117;53.622;9.958;2023-02-15T10:22:11;2.80;;;1.77;;
8151;SDS011;4117;53.622;9.958;2023-02-15T10:24:55;4.07;;;2.07;;
8151;SDS011;4117;53.622;9.958;2023-02-15T10:27:47;3.17;;;1.77;;
8151;SDS011;4117;53.622;9.958;2023-02-15T10:30:15;7.03;;;2.70;;
8151;SDS011;4117;53.622;9.958;2023-02-15T10:32:55;2.57;;;1.37;;
8151;SDS011;4117;53.622;9.958;2023-02-15T10:35:33;6.17;;;2.53;;
8151;SDS011;4117;53.622;9.958;2023-02-15T10:38:13;4.07;;;2.23;;
8151;SDS011;4117;53.622;9.958;2023-02-15T10:40:51;5.67;;;2.03;;
8151;SDS011;4117;53.622;9.958;2023-02-15T10:43:42;6.90;;;1.90;;
8151;SDS011;4117;53.622;9.958;2023-02-15T10:46:22;3.43;;;1.90;;
8151;SDS011;4117;53.622;9.958;2023-02-15T10:49:11;4.47;;;2.00;;
8151;SDS011;4117;53.622;9.958;2023-02-15T10:51:58;10.33;;;1.70;;
8151;SDS011;4117;53.622;9.958;2023-02-15T10:54:45;4.63;;;2.07;;
8151;SDS011;4117;53.622;9.958;2023-02-15T10:57:24;1.70;;;1.40;;
8151;SDS011;4117;53.622;9.958;2023-02-15T11:00:03;7.57;;;2.70;;
8151;SDS011;4117;53.622;9.958;2023-02-15T11:02:49;3.17;;;2.00;;
8151;SDS011;4117;53.622;9.958;2023-02-15T11:05:42;7.23;;;2.20;;
8151;SDS011;4117;53.622;9.958;2023-02-15T11:08:28;4.23;;;2.13;;
8151;SDS011;4117;53.622;9.958;2023-02-15T11:11:02;3.83;;;1.80;;
8151;SDS011;4117;53.622;9.958;2023-02-15T11:13:36;3.80;;;2.13;;
8151;SDS011;4117;53.622;9.958;2023-02-15T11:16:07;5.30;;;2.10;;
8151;SDS011;4117;53.622;9.958;2023-02-15T11:18:41;2.67;;;1.57;;
8151;SDS011;4117;53.622;9.958;2023-02-15T11:21:17;3.27;;;2.10;;
8151;SDS011;4117;53.622;9.958;2023-02-15T11:23:48;4.93;;;2.73;;
8151;SDS011;4117;53.622;9.958;2023-02-15T11:26:19;3.73;;;2.23;;
8151;SDS011;4117;53.622;9.958;2023-02-15T11:28:53;5.13;;;2.30;;
8151;SDS011;4117;53.622;9.958;2023-02-15T11:31:24;6.90;;;2.70;;
8151;SDS011;4117;53.622;9.958;2023-02-15T11:33:53;3.43;;;2.40;;
8151;SDS011;4117;53.622;9.958;2023-02-15T11:36:26;4.33;;;2.27;;
8151;SDS011;4117;53.622;9.958;2023-02-15T11:38:59;3.63;;;2.47;;
8151;SDS011;4117;53.622;9.958;2023-02-15T11:41:29;5.17;;;2.03;;
8151;SDS011;4117;53.622;9.958;2023-02-15T11:44:01;3.50;;;2.27;;
8151;SDS011;4117;53.622;9.958;2023-02-15T11:46:33;3.90;;;2.60;;
8151;SDS011;4117;53.622;9.958;2023-02-15T11:49:00;7.87;;;3.50;;
8151;SDS011;4117;53.622;9.958;2023-02-15T11:51:29;7.67;;;2.37;;
8151;SDS011;4117;53.622;9.958;2023-02-15T11:53:57;2.93;;;2.20;;
8151;SDS011;4117;53.622;9.958;2023-02-15T11:56:25;3.37;;;2.17;;
8151;SDS011;4117;53.622;9.958;2023-02-15T11:58:53;4.70;;;2.80;;
8151;SDS011;4117;53.622;9.958;2023-02-15T12:01:24;5.83;;;2.87;;
8151;SDS011;4117;53.622;9.958;2023-02-15T12:03:57;4.57;;;2.63;;
8151;SDS011;4117;53.622;9.958;2023-02-15T12:06:32;8.90;;;2.60;;
8151;SDS011;4117;53.622;9.958;2023-02-15T12:09:02;3.23;;;2.23;;
8151;SDS011;4117;53.622;9.958;2023-02-15T12:11:34;5.67;;;3.30;;
8151;SDS011;4117;53.622;9.958;2023-02-15T12:14:03;13.00;;;3.30;;
8151;SDS011;4117;53.622;9.958;2023-02-15T12:16:33;4.43;;;2.37;;
8151;SDS011;4117;53.622;9.958;2023-02-15T12:19:11;7.20;;;3.30;;
8151;SDS011;4117;53.622;9.958;2023-02-15T12:21:52;6.37;;;2.73;;
8151;SDS011;4117;53.622;9.958;2023-02-15T12:24:20;7.73;;;3.23;;
8151;SDS011;4117;53.622;9.958;2023-02-15T12:27:01;6.17;;;2.97;;
8151;SDS011;4117;53.622;9.958;2023-02-15T12:29:30;6.80;;;3.27;;
8151;SDS011;4117;53.622;9.958;2023-02-15T12:32:05;10.00;;;3.67;;
8151;SDS011;4117;53.622;9.958;2023-02-15T12:34:37;7.43;;;3.53;;
8151;SDS011;4117;53.622;9.958;2023-02-15T12:37:15;8.97;;;2.90;;
8151;SDS011;4117;53.622;9.958;2023-02-15T12:42:44;14.07;;;3.00;;
8151;SDS011;4117;53.622;9.958;2023-02-15T12:45:21;10.93;;;3.10;;
8151;SDS011;4117;53.622;9.958;2023-02-15T12:50:41;8.93;;;3.13;;
8151;SDS011;4117;53.622;9.958;2023-02-15T12:53:15;6.07;;;3.13;;
8151;SDS011;4117;53.622;9.958;2023-02-15T12:55:52;11.30;;;3.57;;
8151;SDS011;4117;53.622;9.958;2023-02-15T12:58:22;9.37;;;3.70;;
8151;SDS011;4117;53.622;9.958;2023-02-15T13:01:01;5.77;;;4.03;;
8151;SDS011;4117;53.622;9.958;2023-02-15T13:03:31;8.37;;;3.53;;
8151;SDS011;4117;53.622;9.958;2023-02-15T13:05:58;8.53;;;3.60;;
8151;SDS011;4117;53.622;9.958;2023-02-15T13:08:28;5.80;;;3.40;;
8151;SDS011;4117;53.622;9.958;2023-02-15T13:11:00;6.67;;;3.27;;
8151;SDS011;4117;53.622;9.958;2023-02-15T13:13:30;11.57;;;4.27;;
8151;SDS011;4117;53.622;9.958;2023-02-15T13:16:00;10.57;;;4.20;;
8151;SDS011;4117;53.622;9.958;2023-02-15T13:18:31;7.80;;;3.60;;
8151;SDS011;4117;53.622;9.958;2023-02-15T13:21:04;7.37;;;3.47;;
8151;SDS011;4117;53.622;9.958;2023-02-15T13:23:38;5.73;;;2.70;;
8151;SDS011;4117;53.622;9.958;2023-02-15T13:26:11;5.67;;;3.07;;
8151;SDS011;4117;53.622;9.958;2023-02-15T13:28:44;5.27;;;2.87;;
8151;SDS011;4117;53.622;9.958;2023-02-15T13:31:14;6.13;;;3.37;;
8151;SDS011;4117;53.622;9.958;2023-02-15T13:33:43;6.53;;;3.70;;
8151;SDS011;4117;53.622;9.958;2023-02-15T13:36:17;8.33;;;4.60;;
8151;SDS011;4117;53.622;9.958;2023-02-15T13:38:54;9.57;;;3.20;;
8151;SDS011;4117;53.622;9.958;2023-02-15T13:41:30;9.23;;;4.10;;
8151;SDS011;4117;53.622;9.958;2023-02-15T13:44:03;9.37;;;3.03;;
8151;SDS011;4117;53.622;9.958;2023-02-15T13:46:45;9.17;;;3.30;;
8151;SDS011;4117;53.622;9.958;2023-02-15T13:49:32;7.13;;;3.40;;
8151;SDS011;4117;53.622;9.958;2023-02-15T13:52:14;5.20;;;3.53;;
8151;SDS011;4117;53.622;9.958;2023-02-15T13:54:57;6.07;;;3.13;;
8151;SDS011;4117;53.622;9.958;2023-02-15T13:57:43;5.70;;;3.47;;
8151;SDS011;4117;53.622;9.958;2023-02-15T14:00:34;10.00;;;4.20;;
8151;SDS011;4117;53.622;9.958;2023-02-15T14:03:24;7.77;;;4.10;;
8151;SDS011;4117;53.622;9.958;2023-02-15T14:06:16;4.73;;;3.07;;
8151;SDS011;4117;53.622;9.958;2023-02-15T14:09:01;6.13;;;3.33;;
8151;SDS011;4117;53.622;9.958;2023-02-15T14:11:40;10.10;;;3.63;;
8151;SDS011;4117;53.622;9.958;2023-02-15T14:14:32;8.63;;;3.47;;
8151;SDS011;4117;53.622;9.958;2023-02-15T14:17:28;8.17;;;3.87;;
8151;SDS011;4117;53.622;9.958;2023-02-15T14:20:07;5.73;;;3.10;;
8151;SDS011;4117;53.622;9.958;2023-02-15T14:23:04;7.43;;;4.00;;
8151;SDS011;4117;53.622;9.958;2023-02-15T14:25:39;4.87;;;3.37;;
8151;SDS011;4117;53.622;9.958;2023-02-15T14:28:16;7.03;;;3.33;;
8151;SDS011;4117;53.622;9.958;2023-02-15T14:30:50;9.40;;;4.10;;
8151;SDS011;4117;53.622;9.958;2023-02-15T14:33:31;4.90;;;2.90;;
8151;SDS011;4117;53.622;9.958;2023-02-15T14:36:06;9.03;;;4.20;;
8151;SDS011;4117;53.622;9.958;2023-02-15T14:38:44;4.10;;;3.07;;
8151;SDS011;4117;53.622;9.958;2023-02-15T14:41:20;7.17;;;3.67;;
8151;SDS011;4117;53.622;9.958;2023-02-15T14:43:56;5.67;;;3.17;;
8151;SDS011;4117;53.622;9.958;2023-02-15T14:46:42;8.20;;;3.83;;
8151;SDS011;4117;53.622;9.958;2023-02-15T14:49:17;7.30;;;3.33;;
8151;SDS011;4117;53.622;9.958;2023-02-15T14:51:54;8.63;;;3.40;;
8151;SDS011;4117;53.622;9.958;2023-02-15T14:57:25;6.13;;;2.83;;
8151;SDS011;4117;53.622;9.958;2023-02-15T14:59:57;8.27;;;3.83;;
8151;SDS011;4117;53.622;9.958;2023-02-15T15:02:29;6.50;;;3.50;;
8151;SDS011;4117;53.622;9.958;2023-02-15T15:05:07;6.77;;;3.97;;
8151;SDS011;4117;53.622;9.958;2023-02-15T15:07:37;9.17;;;3.90;;
8151;SDS011;4117;53.622;9.958;2023-02-15T15:16:28;8.53;;;3.37;;
8151;SDS011;4117;53.622;9.958;2023-02-15T15:19:08;6.23;;;3.20;;
8151;SDS011;4117;53.622;9.958;2023-02-15T15:21:52;9.97;;;3.77;;
8151;SDS011;4117;53.622;9.958;2023-02-15T15:33:17;5.40;;;2.93;;
8151;SDS011;4117;53.622;9.958;2023-02-15T15:42:32;7.13;;;3.03;;
8151;SDS011;4117;53.622;9.958;2023-02-15T15:48:26;4.83;;;3.03;;
8151;SDS011;4117;53.622;9.958;2023-02-15T15:50:57;6.37;;;2.90;;
8151;SDS011;4117;53.622;9.958;2023-02-15T15:53:26;6.20;;;2.67;;
8151;SDS011;4117;53.622;9.958;2023-02-15T15:55:59;6.17;;;2.93;;
8151;SDS011;4117;53.622;9.958;2023-02-15T15:58:30;3.67;;;2.37;;
8151;SDS011;4117;53.622;9.958;2023-02-15T16:01:01;5.60;;;2.63;;
8151;SDS011;4117;53.622;9.958;2023-02-15T16:03:32;4.37;;;2.97;;
8151;SDS011;4117;53.622;9.958;2023-02-15T16:06:00;4.83;;;2.17;;
8151;SDS011;4117;53.622;9.958;2023-02-15T16:08:29;4.77;;;2.83;;
8151;SDS011;4117;53.622;9.958;2023-02-15T16:10:58;4.60;;;2.50;;
8151;SDS011;4117;53.622;9.958;2023-02-15T16:13:28;3.43;;;2.33;;
8151;SDS011;4117;53.622;9.958;2023-02-15T16:15:55;4.37;;;2.27;;
8151;SDS011;4117;53.622;9.958;2023-02-15T16:18:23;3.33;;;3.03;;
8151;SDS011;4117;53.622;9.958;2023-02-15T16:20:56;5.40;;;2.63;;
8151;SDS011;4117;53.622;9.958;2023-02-15T16:23:30;6.63;;;2.90;;
8151;SDS011;4117;53.622;9.958;2023-02-15T16:26:14;3.60;;;2.50;;
8151;SDS011;4117;53.622;9.958;2023-02-15T16:28:58;6.57;;;2.90;;
8151;SDS011;4117;53.622;9.958;2023-02-15T16:31:26;3.63;;;2.30;;
8151;SDS011;4117;53.622;9.958;2023-02-15T16:33:54;6.37;;;2.70;;